Terminal Aerodrome Forecast
Issued by NWS Albany, NY

Home | Current Version | Previous Version | Text Only | Print | Product List | Glossary On
Versions: 1 2 3 4 5 6 7 8 9 10 11 12 13 14 15 16 17 18
868
FTUS41 KALY 261125
TAFALB
TAF
KALB 261125Z 2612/2712 18006KT 6SM BR SCT006 BKN035 OVC080
      TEMPO 2612/2614 5SM -SHRA BR BKN005 OVC015
     FM261400 19004KT P6SM VCSH BKN015 OVC035
     FM261600 29007KT P6SM BKN040
     FM261900 30012G17KT P6SM FEW050
     FM262300 32007KT P6SM SKC=

USA.gov is the U.S. government's official web portal to all federal, state and local government web resources and services.